CheckWX is a tool to help pilots better visualize weather data.  It is not intended as a substitute for an official pre-flight weather briefing.

08:01:30 UTC

KCMI TAF
University of Illinois-Willard Airport
Champaign/Urbana, Illinois, USA
KCMI 190520Z 1906/2006 VRB03KT P6SM SCT200 FM191600 20012KT P6SM SCT150 FM200200 16005KT P6SM BKN120

Mar-19@
06:00 UTC

Mar-19 @ 06:00 UTC

Mar-19@
16:00 UTC

Mar-19 @ 16:00 UTC

KCMI 190520Z 1906/2006 VRB03KT P6SM SCT200
Wind
  • Variable at 3 KTS
Cloud Levels
  • Scattered at 20,000' AGL

Mar-19@
16:00 UTC

Mar-19 @ 16:00 UTC

Mar-20@
02:00 UTC

Mar-20 @ 02:00 UTC

FM191600 20012KT P6SM SCT150

From

From Standard forecast or significant change

Wind
  • 200° at 12 KTS
Cloud Levels
  • Scattered at 15,000' AGL

Mar-20@
02:00 UTC

Mar-20 @ 02:00 UTC

Mar-20@
06:00 UTC

Mar-20 @ 06:00 UTC

FM200200 16005KT P6SM BKN120

From

From Standard forecast or significant change

Wind
  • 160° at 5 KTS
Cloud Levels
  • Broken at 12,000' AGL